sensor_id;sensor_type;location;lat;lon;timestamp;temperature;humidity
21085;DHT22;34247;50.064;19.970;2022-09-20T00:03:36;27.60;32.30
21085;DHT22;34247;50.064;19.970;2022-09-20T00:04:51;27.60;32.30
21085;DHT22;34247;50.064;19.970;2022-09-20T00:06:17;27.60;32.30
21085;DHT22;34247;50.064;19.970;2022-09-20T00:07:44;27.60;32.20
21085;DHT22;34247;50.064;19.970;2022-09-20T00:09:12;27.60;32.10
21085;DHT22;34247;50.064;19.970;2022-09-20T00:10:34;27.60;32.10
21085;DHT22;34247;50.064;19.970;2022-09-20T00:11:57;27.60;32.20
21085;DHT22;34247;50.064;19.970;2022-09-20T00:13:28;27.60;32.10
21085;DHT22;34247;50.064;19.970;2022-09-20T00:14:48;27.60;32.20
21085;DHT22;34247;50.064;19.970;2022-09-20T00:16:24;27.60;32.20
21085;DHT22;34247;50.064;19.970;2022-09-20T00:18:17;27.60;32.20
21085;DHT22;34247;50.064;19.970;2022-09-20T00:19:25;27.60;32.10
21085;DHT22;34247;50.064;19.970;2022-09-20T00:20:32;27.60;32.20
21085;DHT22;34247;50.064;19.970;2022-09-20T00:21:40;27.60;32.20
21085;DHT22;34247;50.064;19.970;2022-09-20T00:22:46;27.60;32.20
21085;DHT22;34247;50.064;19.970;2022-09-20T00:23:56;27.60;32.20
21085;DHT22;34247;50.064;19.970;2022-09-20T00:25:08;27.60;32.10
21085;DHT22;34247;50.064;19.970;2022-09-20T00:26:12;27.60;32.10
21085;DHT22;34247;50.064;19.970;2022-09-20T00:27:18;27.60;32.10
21085;DHT22;34247;50.064;19.970;2022-09-20T00:28:26;27.60;32.20
21085;DHT22;34247;50.064;19.970;2022-09-20T00:29:32;27.60;32.20
21085;DHT22;34247;50.064;19.970;2022-09-20T00:30:37;27.60;32.20
21085;DHT22;34247;50.064;19.970;2022-09-20T00:31:44;27.60;32.30
21085;DHT22;34247;50.064;19.970;2022-09-20T00:32:55;27.60;32.30
21085;DHT22;34247;50.064;19.970;2022-09-20T00:34:00;27.60;32.30
21085;DHT22;34247;50.064;19.970;2022-09-20T00:35:23;27.60;32.30
21085;DHT22;34247;50.064;19.970;2022-09-20T00:36:29;27.60;32.30
21085;DHT22;34247;50.064;19.970;2022-09-20T00:37:40;27.60;32.90
21085;DHT22;34247;50.064;19.970;2022-09-20T00:38:57;27.60;32.30
21085;DHT22;34247;50.064;19.970;2022-09-20T00:40:09;27.60;32.30
21085;DHT22;34247;50.064;19.970;2022-09-20T00:41:20;27.60;32.30
21085;DHT22;34247;50.064;19.970;2022-09-20T00:42:28;27.60;32.30
21085;DHT22;34247;50.064;19.970;2022-09-20T00:43:43;27.70;32.40
21085;DHT22;34247;50.064;19.970;2022-09-20T00:45:12;27.70;32.30
21085;DHT22;34247;50.064;19.970;2022-09-20T00:46:42;27.70;32.30
21085;DHT22;34247;50.064;19.970;2022-09-20T00:48:09;27.70;32.30
21085;DHT22;34247;50.064;19.970;2022-09-20T00:49:26;27.70;32.30
21085;DHT22;34247;50.064;19.970;2022-09-20T00:51:53;27.70;32.30
21085;DHT22;34247;50.064;19.970;2022-09-20T00:53:20;27.70;32.20
21085;DHT22;34247;50.064;19.970;2022-09-20T00:54:34;27.60;32.10
21085;DHT22;34247;50.064;19.970;2022-09-20T00:56:11;27.70;32.30
21085;DHT22;34247;50.064;19.970;2022-09-20T00:57:22;27.70;32.30
21085;DHT22;34247;50.064;19.970;2022-09-20T00:58:28;27.70;32.40
21085;DHT22;34247;50.064;19.970;2022-09-20T00:59:46;27.70;32.30
21085;DHT22;34247;50.064;19.970;2022-09-20T01:01:00;27.70;32.40
21085;DHT22;34247;50.064;19.970;2022-09-20T01:02:06;27.70;32.40
21085;DHT22;34247;50.064;19.970;2022-09-20T01:03:17;27.70;32.40
21085;DHT22;34247;50.064;19.970;2022-09-20T01:04:33;27.70;32.40
21085;DHT22;34247;50.064;19.970;2022-09-20T01:05:52;27.70;32.40
21085;DHT22;34247;50.064;19.970;2022-09-20T01:07:06;27.70;32.40
21085;DHT22;34247;50.064;19.970;2022-09-20T01:08:12;27.70;32.40
21085;DHT22;34247;50.064;19.970;2022-09-20T01:09:25;27.70;32.40
21085;DHT22;34247;50.064;19.970;2022-09-20T01:10:42;27.70;32.50
21085;DHT22;34247;50.064;19.970;2022-09-20T01:11:54;27.70;32.50
21085;DHT22;34247;50.064;19.970;2022-09-20T01:13:07;27.70;32.40
21085;DHT22;34247;50.064;19.970;2022-09-20T01:14:22;27.70;32.50
21085;DHT22;34247;50.064;19.970;2022-09-20T01:15:30;27.70;32.30
21085;DHT22;34247;50.064;19.970;2022-09-20T01:16:47;27.70;32.30
21085;DHT22;34247;50.064;19.970;2022-09-20T01:18:03;27.70;32.40
21085;DHT22;34247;50.064;19.970;2022-09-20T01:19:41;27.70;32.30
21085;DHT22;34247;50.064;19.970;2022-09-20T01:21:09;27.70;32.20
21085;DHT22;34247;50.064;19.970;2022-09-20T01:22:24;27.70;32.30
21085;DHT22;34247;50.064;19.970;2022-09-20T01:29:24;27.70;32.30
21085;DHT22;34247;50.064;19.970;2022-09-20T01:32:23;27.70;32.40
21085;DHT22;34247;50.064;19.970;2022-09-20T01:34:07;27.70;32.30
21085;DHT22;34247;50.064;19.970;2022-09-20T01:35:18;27.70;32.30
21085;DHT22;34247;50.064;19.970;2022-09-20T01:36:43;27.70;32.40
21085;DHT22;34247;50.064;19.970;2022-09-20T01:38:53;27.70;32.30
21085;DHT22;34247;50.064;19.970;2022-09-20T01:40:32;27.70;32.40
21085;DHT22;34247;50.064;19.970;2022-09-20T01:42:13;27.70;32.30
21085;DHT22;34247;50.064;19.970;2022-09-20T01:46:20;27.70;32.30
21085;DHT22;34247;50.064;19.970;2022-09-20T01:54:39;27.70;32.30
21085;DHT22;34247;50.064;19.970;2022-09-20T02:00:01;27.80;32.30
21085;DHT22;34247;50.064;19.970;2022-09-20T02:06:23;27.80;32.30
21085;DHT22;34247;50.064;19.970;2022-09-20T02:11:45;27.80;32.30
21085;DHT22;34247;50.064;19.970;2022-09-20T02:17:40;27.80;32.30
21085;DHT22;34247;50.064;19.970;2022-09-20T02:19:22;27.80;32.30
21085;DHT22;34247;50.064;19.970;2022-09-20T02:21:03;27.80;32.30
21085;DHT22;34247;50.064;19.970;2022-09-20T02:27:32;27.80;32.30
21085;DHT22;34247;50.064;19.970;2022-09-20T02:32:20;27.80;32.30
21085;DHT22;34247;50.064;19.970;2022-09-20T02:34:06;27.80;32.10
21085;DHT22;34247;50.064;19.970;2022-09-20T02:39:27;27.80;32.30
21085;DHT22;34247;50.064;19.970;2022-09-20T02:41:22;27.80;32.30
21085;DHT22;34247;50.064;19.970;2022-09-20T03:05:01;27.80;32.30
21085;DHT22;34247;50.064;19.970;2022-09-20T03:06:29;27.80;32.30
21085;DHT22;34247;50.064;19.970;2022-09-20T03:07:53;27.80;32.30
21085;DHT22;34247;50.064;19.970;2022-09-20T03:14:13;27.80;32.20
21085;DHT22;34247;50.064;19.970;2022-09-20T03:19:00;27.80;32.10
21085;DHT22;34247;50.064;19.970;2022-09-20T03:22:40;27.80;32.30
21085;DHT22;34247;50.064;19.970;2022-09-20T03:25:53;27.80;32.20
21085;DHT22;34247;50.064;19.970;2022-09-20T03:29:03;27.80;32.90
21085;DHT22;34247;50.064;19.970;2022-09-20T03:30:26;27.80;32.30
21085;DHT22;34247;50.064;19.970;2022-09-20T03:39:05;27.80;32.30
21085;DHT22;34247;50.064;19.970;2022-09-20T03:42:27;27.90;32.30
21085;DHT22;34247;50.064;19.970;2022-09-20T03:43:53;27.80;32.10
21085;DHT22;34247;50.064;19.970;2022-09-20T03:47:17;27.80;32.20
21085;DHT22;34247;50.064;19.970;2022-09-20T03:52:08;27.90;32.10
21085;DHT22;34247;50.064;19.970;2022-09-20T03:54:15;27.90;32.20
21085;DHT22;34247;50.064;19.970;2022-09-20T04:01:31;27.90;32.10
21085;DHT22;34247;50.064;19.970;2022-09-20T04:03:24;27.90;32.20
21085;DHT22;34247;50.064;19.970;2022-09-20T04:04:59;27.90;32.10
21085;DHT22;34247;50.064;19.970;2022-09-20T04:07:59;27.90;32.10
21085;DHT22;34247;50.064;19.970;2022-09-20T04:10:15;27.90;32.10
21085;DHT22;34247;50.064;19.970;2022-09-20T04:13:34;27.90;32.00
21085;DHT22;34247;50.064;19.970;2022-09-20T04:14:54;27.90;32.00
21085;DHT22;34247;50.064;19.970;2022-09-20T04:16:36;27.90;31.90
21085;DHT22;34247;50.064;19.970;2022-09-20T04:19:38;27.80;31.90
21085;DHT22;34247;50.064;19.970;2022-09-20T04:22:30;27.90;31.90
21085;DHT22;34247;50.064;19.970;2022-09-20T04:25:38;27.80;32.00
21085;DHT22;34247;50.064;19.970;2022-09-20T04:27:02;27.80;31.90
21085;DHT22;34247;50.064;19.970;2022-09-20T04:30:19;27.80;31.90
21085;DHT22;34247;50.064;19.970;2022-09-20T04:31:45;27.80;32.00
21085;DHT22;34247;50.064;19.970;2022-09-20T04:33:27;27.90;32.00
21085;DHT22;34247;50.064;19.970;2022-09-20T04:37:44;27.80;32.00
21085;DHT22;34247;50.064;19.970;2022-09-20T04:47:56;27.90;31.90
21085;DHT22;34247;50.064;19.970;2022-09-20T04:50:16;27.80;31.90
21085;DHT22;34247;50.064;19.970;2022-09-20T04:55:35;27.80;32.50
21085;DHT22;34247;50.064;19.970;2022-09-20T04:58:30;27.80;31.70
21085;DHT22;34247;50.064;19.970;2022-09-20T05:00:10;27.80;31.70
21085;DHT22;34247;50.064;19.970;2022-09-20T05:15:38;27.80;31.70
21085;DHT22;34247;50.064;19.970;2022-09-20T05:25:48;27.80;31.80
21085;DHT22;34247;50.064;19.970;2022-09-20T05:32:35;27.80;31.70
21085;DHT22;34247;50.064;19.970;2022-09-20T05:34:18;27.80;31.80
21085;DHT22;34247;50.064;19.970;2022-09-20T05:37:40;27.80;31.70
21085;DHT22;34247;50.064;19.970;2022-09-20T05:41:03;27.90;31.70
21085;DHT22;34247;50.064;19.970;2022-09-20T05:43:09;27.90;31.70
21085;DHT22;34247;50.064;19.970;2022-09-20T05:45:25;27.90;31.50
21085;DHT22;34247;50.064;19.970;2022-09-20T05:47:15;27.90;31.60
21085;DHT22;34247;50.064;19.970;2022-09-20T05:59:33;27.90;31.70
21085;DHT22;34247;50.064;19.970;2022-09-20T06:02:53;27.90;31.90
21085;DHT22;34247;50.064;19.970;2022-09-20T06:04:41;27.90;31.90
21085;DHT22;34247;50.064;19.970;2022-09-20T06:06:30;27.90;31.90
21085;DHT22;34247;50.064;19.970;2022-09-20T06:08:22;27.90;31.90
21085;DHT22;34247;50.064;19.970;2022-09-20T06:12:25;27.90;31.90
21085;DHT22;34247;50.064;19.970;2022-09-20T06:16:04;27.90;31.90
21085;DHT22;34247;50.064;19.970;2022-09-20T06:22:44;27.90;31.90
21085;DHT22;34247;50.064;19.970;2022-09-20T06:26:03;28.00;31.90
21085;DHT22;34247;50.064;19.970;2022-09-20T06:27:21;28.00;31.80
21085;DHT22;34247;50.064;19.970;2022-09-20T06:28:39;28.00;31.90
21085;DHT22;34247;50.064;19.970;2022-09-20T06:29:56;28.00;31.90
21085;DHT22;34247;50.064;19.970;2022-09-20T06:31:06;28.00;31.80
21085;DHT22;34247;50.064;19.970;2022-09-20T06:32:16;28.00;31.80
21085;DHT22;34247;50.064;19.970;2022-09-20T06:33:23;28.00;31.80
21085;DHT22;34247;50.064;19.970;2022-09-20T06:34:28;28.00;31.70
21085;DHT22;34247;50.064;19.970;2022-09-20T06:35:48;28.00;31.80
21085;DHT22;34247;50.064;19.970;2022-09-20T06:40:53;28.00;31.80
21085;DHT22;34247;50.064;19.970;2022-09-20T06:42:13;28.00;31.80
21085;DHT22;34247;50.064;19.970;2022-09-20T06:43:18;28.00;31.80
21085;DHT22;34247;50.064;19.970;2022-09-20T06:44:23;28.00;31.70
21085;DHT22;34247;50.064;19.970;2022-09-20T06:45:26;28.00;31.70
21085;DHT22;34247;50.064;19.970;2022-09-20T06:46:33;28.00;31.60
21085;DHT22;34247;50.064;19.970;2022-09-20T06:47:38;28.00;31.50
21085;DHT22;34247;50.064;19.970;2022-09-20T06:48:43;28.00;31.60
21085;DHT22;34247;50.064;19.970;2022-09-20T06:49:49;28.00;31.50
21085;DHT22;34247;50.064;19.970;2022-09-20T06:50:54;28.00;31.60
21085;DHT22;34247;50.064;19.970;2022-09-20T06:51:59;28.00;31.50
21085;DHT22;34247;50.064;19.970;2022-09-20T06:53:04;28.00;31.50
21085;DHT22;34247;50.064;19.970;2022-09-20T06:56:04;28.00;31.30
21085;DHT22;34247;50.064;19.970;2022-09-20T06:58:07;28.00;31.20
21085;DHT22;34247;50.064;19.970;2022-09-20T06:59:19;28.00;31.40
21085;DHT22;34247;50.064;19.970;2022-09-20T07:00:40;28.00;31.30
21085;DHT22;34247;50.064;19.970;2022-09-20T07:01:45;28.00;31.40
21085;DHT22;34247;50.064;19.970;2022-09-20T07:02:49;28.00;31.40
21085;DHT22;34247;50.064;19.970;2022-09-20T07:03:54;28.00;31.40
21085;DHT22;34247;50.064;19.970;2022-09-20T07:04:58;28.00;31.40
21085;DHT22;34247;50.064;19.970;2022-09-20T07:06:02;28.00;31.50
21085;DHT22;34247;50.064;19.970;2022-09-20T07:07:12;28.00;31.40
21085;DHT22;34247;50.064;19.970;2022-09-20T07:08:21;28.00;31.50
21085;DHT22;34247;50.064;19.970;2022-09-20T07:09:27;27.90;31.50
21085;DHT22;34247;50.064;19.970;2022-09-20T07:10:40;28.00;32.10
21085;DHT22;34247;50.064;19.970;2022-09-20T07:11:46;28.00;31.30
21085;DHT22;34247;50.064;19.970;2022-09-20T07:12:50;28.00;31.20
21085;DHT22;34247;50.064;19.970;2022-09-20T07:13:57;28.00;31.20
21085;DHT22;34247;50.064;19.970;2022-09-20T07:15:01;28.00;31.30
21085;DHT22;34247;50.064;19.970;2022-09-20T07:16:07;28.00;31.30
21085;DHT22;34247;50.064;19.970;2022-09-20T07:17:13;28.00;31.30
21085;DHT22;34247;50.064;19.970;2022-09-20T07:18:18;28.00;31.30
21085;DHT22;34247;50.064;19.970;2022-09-20T07:19:22;28.00;31.30
21085;DHT22;34247;50.064;19.970;2022-09-20T07:20:26;28.10;31.20
21085;DHT22;34247;50.064;19.970;2022-09-20T07:21:31;28.10;31.20
21085;DHT22;34247;50.064;19.970;2022-09-20T07:22:36;28.10;31.90
21085;DHT22;34247;50.064;19.970;2022-09-20T07:23:40;28.10;31.20
21085;DHT22;34247;50.064;19.970;2022-09-20T07:24:44;28.10;31.20
21085;DHT22;34247;50.064;19.970;2022-09-20T07:25:57;28.10;31.30
21085;DHT22;34247;50.064;19.970;2022-09-20T07:27:04;28.10;31.10
21085;DHT22;34247;50.064;19.970;2022-09-20T07:28:08;28.10;31.20
21085;DHT22;34247;50.064;19.970;2022-09-20T07:29:12;28.10;31.20
21085;DHT22;34247;50.064;19.970;2022-09-20T07:30:19;28.10;31.20
21085;DHT22;34247;50.064;19.970;2022-09-20T07:31:25;28.10;31.10
21085;DHT22;34247;50.064;19.970;2022-09-20T07:32:30;28.10;31.10
21085;DHT22;34247;50.064;19.970;2022-09-20T07:33:41;28.10;31.10
21085;DHT22;34247;50.064;19.970;2022-09-20T07:34:45;28.10;31.10
21085;DHT22;34247;50.064;19.970;2022-09-20T07:35:52;28.10;31.10
21085;DHT22;34247;50.064;19.970;2022-09-20T07:37:00;28.10;31.10
21085;DHT22;34247;50.064;19.970;2022-09-20T07:38:07;28.10;31.20
21085;DHT22;34247;50.064;19.970;2022-09-20T07:39:13;28.10;31.10
21085;DHT22;34247;50.064;19.970;2022-09-20T07:40:16;28.10;31.20
21085;DHT22;34247;50.064;19.970;2022-09-20T07:41:22;28.20;31.30
21085;DHT22;34247;50.064;19.970;2022-09-20T07:42:27;28.20;31.30
21085;DHT22;34247;50.064;19.970;2022-09-20T07:43:32;28.20;31.40
21085;DHT22;34247;50.064;19.970;2022-09-20T07:44:36;28.20;31.40
21085;DHT22;34247;50.064;19.970;2022-09-20T07:45:43;28.20;31.30
21085;DHT22;34247;50.064;19.970;2022-09-20T07:46:48;28.20;31.40
21085;DHT22;34247;50.064;19.970;2022-09-20T07:47:59;28.20;31.40
21085;DHT22;34247;50.064;19.970;2022-09-20T07:49:09;28.30;31.40
21085;DHT22;34247;50.064;19.970;2022-09-20T07:50:13;28.30;31.50
21085;DHT22;34247;50.064;19.970;2022-09-20T07:51:17;28.30;31.40
21085;DHT22;34247;50.064;19.970;2022-09-20T07:52:21;28.30;31.50
21085;DHT22;34247;50.064;19.970;2022-09-20T07:53:25;28.30;31.20
21085;DHT22;34247;50.064;19.970;2022-09-20T07:54:29;28.30;31.20
21085;DHT22;34247;50.064;19.970;2022-09-20T07:55:33;28.40;31.40
21085;DHT22;34247;50.064;19.970;2022-09-20T07:56:39;28.40;31.70
21085;DHT22;34247;50.064;19.970;2022-09-20T07:57:43;28.40;31.10
21085;DHT22;34247;50.064;19.970;2022-09-20T07:58:50;28.50;31.10
21085;DHT22;34247;50.064;19.970;2022-09-20T07:59:54;28.50;30.80
21085;DHT22;34247;50.064;19.970;2022-09-20T08:01:05;28.60;30.90
21085;DHT22;34247;50.064;19.970;2022-09-20T08:02:14;28.70;31.30
21085;DHT22;34247;50.064;19.970;2022-09-20T08:03:18;28.70;31.70
21085;DHT22;34247;50.064;19.970;2022-09-20T08:04:23;28.80;32.00
21085;DHT22;34247;50.064;19.970;2022-09-20T08:05:26;28.90;31.60
21085;DHT22;34247;50.064;19.970;2022-09-20T08:06:31;29.00;31.60
21085;DHT22;34247;50.064;19.970;2022-09-20T08:07:39;29.20;31.30
21085;DHT22;34247;50.064;19.970;2022-09-20T08:08:43;29.40;31.00
21085;DHT22;34247;50.064;19.970;2022-09-20T08:09:47;29.50;30.50
21085;DHT22;34247;50.064;19.970;2022-09-20T08:10:51;29.60;30.00
21085;DHT22;34247;50.064;19.970;2022-09-20T08:11:57;29.80;29.80
21085;DHT22;34247;50.064;19.970;2022-09-20T08:13:01;30.00;29.60
21085;DHT22;34247;50.064;19.970;2022-09-20T08:14:27;30.10;29.30
21085;DHT22;34247;50.064;19.970;2022-09-20T08:15:33;30.20;28.90
21085;DHT22;34247;50.064;19.970;2022-09-20T08:16:46;30.30;28.70
21085;DHT22;34247;50.064;19.970;2022-09-20T08:17:52;30.40;28.50
21085;DHT22;34247;50.064;19.970;2022-09-20T08:19:01;30.40;28.40
21085;DHT22;34247;50.064;19.970;2022-09-20T08:20:06;30.50;28.20
21085;DHT22;34247;50.064;19.970;2022-09-20T08:21:10;30.50;28.10
21085;DHT22;34247;50.064;19.970;2022-09-20T08:22:14;30.60;27.90
21085;DHT22;34247;50.064;19.970;2022-09-20T08:23:20;30.60;27.80
21085;DHT22;34247;50.064;19.970;2022-09-20T08:24:26;30.60;27.80
21085;DHT22;34247;50.064;19.970;2022-09-20T08:25:31;30.50;27.80
21085;DHT22;34247;50.064;19.970;2022-09-20T08:26:40;30.60;27.90
21085;DHT22;34247;50.064;19.970;2022-09-20T08:27:46;30.60;27.90
21085;DHT22;34247;50.064;19.970;2022-09-20T08:28:57;30.50;27.80
21085;DHT22;34247;50.064;19.970;2022-09-20T08:30:02;30.50;27.80
21085;DHT22;34247;50.064;19.970;2022-09-20T08:31:09;30.50;27.70
21085;DHT22;34247;50.064;19.970;2022-09-20T08:32:15;30.50;27.70
21085;DHT22;34247;50.064;19.970;2022-09-20T08:33:22;30.50;27.80
21085;DHT22;34247;50.064;19.970;2022-09-20T08:34:26;30.40;27.70
21085;DHT22;34247;50.064;19.970;2022-09-20T08:35:30;30.40;27.70
21085;DHT22;34247;50.064;19.970;2022-09-20T08:36:42;30.50;27.50
21085;DHT22;34247;50.064;19.970;2022-09-20T08:37:49;30.40;27.50
21085;DHT22;34247;50.064;19.970;2022-09-20T08:38:57;30.40;27.20
21085;DHT22;34247;50.064;19.970;2022-09-20T08:40:22;30.40;27.80
21085;DHT22;34247;50.064;19.970;2022-09-20T08:42:36;30.30;27.30
21085;DHT22;34247;50.064;19.970;2022-09-20T08:43:58;30.30;27.30
21085;DHT22;34247;50.064;19.970;2022-09-20T08:45:10;30.20;27.50
21085;DHT22;34247;50.064;19.970;2022-09-20T08:46:47;30.20;27.40
21085;DHT22;34247;50.064;19.970;2022-09-20T08:47:59;30.10;27.50
21085;DHT22;34247;50.064;19.970;2022-09-20T08:49:11;30.10;27.50
21085;DHT22;34247;50.064;19.970;2022-09-20T08:50:26;30.10;27.50
21085;DHT22;34247;50.064;19.970;2022-09-20T08:51:34;30.00;27.60
21085;DHT22;34247;50.064;19.970;2022-09-20T08:52:46;30.00;27.70
21085;DHT22;34247;50.064;19.970;2022-09-20T08:53:53;29.90;27.70
21085;DHT22;34247;50.064;19.970;2022-09-20T08:55:00;29.90;27.80
21085;DHT22;34247;50.064;19.970;2022-09-20T08:56:09;29.90;27.80
21085;DHT22;34247;50.064;19.970;2022-09-20T08:57:16;29.80;27.80
21085;DHT22;34247;50.064;19.970;2022-09-20T08:58:23;29.80;28.00
21085;DHT22;34247;50.064;19.970;2022-09-20T08:59:31;29.80;28.00
21085;DHT22;34247;50.064;19.970;2022-09-20T09:00:37;29.80;27.90
21085;DHT22;34247;50.064;19.970;2022-09-20T09:01:51;29.80;27.90
21085;DHT22;34247;50.064;19.970;2022-09-20T09:03:09;29.80;27.90
21085;DHT22;34247;50.064;19.970;2022-09-20T09:04:21;29.70;27.80
21085;DHT22;34247;50.064;19.970;2022-09-20T09:05:35;29.70;28.20
21085;DHT22;34247;50.064;19.970;2022-09-20T09:06:55;29.70;27.70
21085;DHT22;34247;50.064;19.970;2022-09-20T09:08:05;29.70;27.50
21085;DHT22;34247;50.064;19.970;2022-09-20T09:09:24;29.70;27.50
21085;DHT22;34247;50.064;19.970;2022-09-20T09:10:54;29.70;27.60
21085;DHT22;34247;50.064;19.970;2022-09-20T09:12:25;29.70;27.60
21085;DHT22;34247;50.064;19.970;2022-09-20T09:13:51;29.70;27.70
21085;DHT22;34247;50.064;19.970;2022-09-20T09:14:59;29.70;27.60
21085;DHT22;34247;50.064;19.970;2022-09-20T09:16:24;29.70;27.60
21085;DHT22;34247;50.064;19.970;2022-09-20T09:17:37;29.70;27.60
21085;DHT22;34247;50.064;19.970;2022-09-20T09:18:42;29.70;27.70
21085;DHT22;34247;50.064;19.970;2022-09-20T09:19:53;29.70;27.90
21085;DHT22;34247;50.064;19.970;2022-09-20T09:20:59;29.70;27.80
21085;DHT22;34247;50.064;19.970;2022-09-20T09:22:06;29.70;27.70
21085;DHT22;34247;50.064;19.970;2022-09-20T09:23:21;29.80;27.80
21085;DHT22;34247;50.064;19.970;2022-09-20T09:24:29;29.90;27.90
21085;DHT22;34247;50.064;19.970;2022-09-20T09:25:38;30.00;27.70
21085;DHT22;34247;50.064;19.970;2022-09-20T09:26:45;30.00;27.60
21085;DHT22;34247;50.064;19.970;2022-09-20T09:27:53;30.10;27.60
21085;DHT22;34247;50.064;19.970;2022-09-20T09:29:18;30.20;27.60
21085;DHT22;34247;50.064;19.970;2022-09-20T09:30:44;30.40;27.40
21085;DHT22;34247;50.064;19.970;2022-09-20T09:32:22;30.50;27.30
21085;DHT22;34247;50.064;19.970;2022-09-20T09:33:33;30.60;27.00
21085;DHT22;34247;50.064;19.970;2022-09-20T09:34:37;30.70;26.90
21085;DHT22;34247;50.064;19.970;2022-09-20T09:35:41;30.90;26.50
21085;DHT22;34247;50.064;19.970;2022-09-20T09:36:49;31.00;26.40
21085;DHT22;34247;50.064;19.970;2022-09-20T09:38:01;31.10;26.30
21085;DHT22;34247;50.064;19.970;2022-09-20T09:40:53;31.20;24.90
21085;DHT22;34247;50.064;19.970;2022-09-20T09:42:24;31.30;24.90
21085;DHT22;34247;50.064;19.970;2022-09-20T09:43:36;31.40;24.90
21085;DHT22;34247;50.064;19.970;2022-09-20T09:44:43;31.50;24.70
21085;DHT22;34247;50.064;19.970;2022-09-20T09:46:14;31.50;24.70
21085;DHT22;34247;50.064;19.970;2022-09-20T09:47:36;31.50;24.70
21085;DHT22;34247;50.064;19.970;2022-09-20T09:48:44;31.60;25.00
21085;DHT22;34247;50.064;19.970;2022-09-20T09:49:58;31.60;25.00
21085;DHT22;34247;50.064;19.970;2022-09-20T09:51:17;31.60;24.90
21085;DHT22;34247;50.064;19.970;2022-09-20T09:52:26;31.60;24.80
21085;DHT22;34247;50.064;19.970;2022-09-20T09:53:35;31.70;24.80
21085;DHT22;34247;50.064;19.970;2022-09-20T09:54:51;31.70;24.60
21085;DHT22;34247;50.064;19.970;2022-09-20T09:58:13;31.70;24.10
21085;DHT22;34247;50.064;19.970;2022-09-20T10:00:54;31.70;24.60
21085;DHT22;34247;50.064;19.970;2022-09-20T10:02:28;31.70;24.70
21085;DHT22;34247;50.064;19.970;2022-09-20T10:04:00;31.70;24.70
21085;DHT22;34247;50.064;19.970;2022-09-20T10:07:12;31.60;24.60
21085;DHT22;34247;50.064;19.970;2022-09-20T10:09:06;31.50;24.90
21085;DHT22;34247;50.064;19.970;2022-09-20T10:11:02;31.40;25.70
21085;DHT22;34247;50.064;19.970;2022-09-20T10:16:03;31.10;26.50
21085;DHT22;34247;50.064;19.970;2022-09-20T10:16:56;31.00;26.20
21085;DHT22;34247;50.064;19.970;2022-09-20T10:20:26;30.90;26.70
21085;DHT22;34247;50.064;19.970;2022-09-20T10:28:51;30.50;27.40
21085;DHT22;34247;50.064;19.970;2022-09-20T10:30:42;30.40;27.40
21085;DHT22;34247;50.064;19.970;2022-09-20T10:32:57;30.30;27.30
21085;DHT22;34247;50.064;19.970;2022-09-20T10:36:05;30.20;27.40
21085;DHT22;34247;50.064;19.970;2022-09-20T10:39:24;30.10;27.90
21085;DHT22;34247;50.064;19.970;2022-09-20T10:47:48;29.80;27.70
21085;DHT22;34247;50.064;19.970;2022-09-20T10:49:13;29.80;27.30
21085;DHT22;34247;50.064;19.970;2022-09-20T10:55:50;29.60;27.90
21085;DHT22;34247;50.064;19.970;2022-09-20T10:59:23;29.60;28.30
21085;DHT22;34247;50.064;19.970;2022-09-20T11:00:56;29.60;28.50
21085;DHT22;34247;50.064;19.970;2022-09-20T11:05:16;29.60;28.90
21085;DHT22;34247;50.064;19.970;2022-09-20T11:06:54;29.60;28.90
21085;DHT22;34247;50.064;19.970;2022-09-20T11:08:19;29.50;29.00
21085;DHT22;34247;50.064;19.970;2022-09-20T11:09:36;29.60;29.10
21085;DHT22;34247;50.064;19.970;2022-09-20T11:10:49;29.60;29.20
21085;DHT22;34247;50.064;19.970;2022-09-20T11:13:55;29.60;29.20
21085;DHT22;34247;50.064;19.970;2022-09-20T11:15:04;29.60;29.30
21085;DHT22;34247;50.064;19.970;2022-09-20T11:19:34;29.60;28.30
21085;DHT22;34247;50.064;19.970;2022-09-20T11:21:40;29.60;27.90
21085;DHT22;34247;50.064;19.970;2022-09-20T11:23:07;29.60;27.90
21085;DHT22;34247;50.064;19.970;2022-09-20T11:25:53;29.60;27.90
21085;DHT22;34247;50.064;19.970;2022-09-20T11:28:47;29.60;28.20
21085;DHT22;34247;50.064;19.970;2022-09-20T11:32:33;29.70;28.10
21085;DHT22;34247;50.064;19.970;2022-09-20T11:33:56;29.70;27.80
21085;DHT22;34247;50.064;19.970;2022-09-20T11:36:22;29.80;27.80
21085;DHT22;34247;50.064;19.970;2022-09-20T11:37:39;29.80;28.00
21085;DHT22;34247;50.064;19.970;2022-09-20T11:38:59;29.90;27.80
21085;DHT22;34247;50.064;19.970;2022-09-20T11:41:34;29.90;27.30
21085;DHT22;34247;50.064;19.970;2022-09-20T11:42:39;29.90;27.20
21085;DHT22;34247;50.064;19.970;2022-09-20T11:43:45;30.00;27.30
21085;DHT22;34247;50.064;19.970;2022-09-20T11:44:51;30.00;27.30
21085;DHT22;34247;50.064;19.970;2022-09-20T11:46:07;30.00;27.30
21085;DHT22;34247;50.064;19.970;2022-09-20T11:47:20;30.00;27.10
21085;DHT22;34247;50.064;19.970;2022-09-20T11:49:15;30.00;27.20
21085;DHT22;34247;50.064;19.970;2022-09-20T11:52:52;30.00;27.60
21085;DHT22;34247;50.064;19.970;2022-09-20T11:54:27;30.10;27.40
21085;DHT22;34247;50.064;19.970;2022-09-20T11:57:23;30.10;27.10
21085;DHT22;34247;50.064;19.970;2022-09-20T11:58:28;30.10;26.90
21085;DHT22;34247;50.064;19.970;2022-09-20T11:59:41;30.10;27.10
21085;DHT22;34247;50.064;19.970;2022-09-20T12:00:56;30.10;27.40
21085;DHT22;34247;50.064;19.970;2022-09-20T12:02:04;30.20;27.50
21085;DHT22;34247;50.064;19.970;2022-09-20T12:04:43;30.20;27.20
21085;DHT22;34247;50.064;19.970;2022-09-20T12:05:57;30.20;26.90
21085;DHT22;34247;50.064;19.970;2022-09-20T12:08:31;30.30;27.00
21085;DHT22;34247;50.064;19.970;2022-09-20T12:09:41;30.30;27.00
21085;DHT22;34247;50.064;19.970;2022-09-20T12:11:06;30.30;26.90
21085;DHT22;34247;50.064;19.970;2022-09-20T12:13:34;30.30;26.50
21085;DHT22;34247;50.064;19.970;2022-09-20T12:14:41;30.30;26.00
21085;DHT22;34247;50.064;19.970;2022-09-20T12:16:03;30.30;26.00
21085;DHT22;34247;50.064;19.970;2022-09-20T12:19:56;30.30;25.50
21085;DHT22;34247;50.064;19.970;2022-09-20T12:22:27;30.40;25.60
21085;DHT22;34247;50.064;19.970;2022-09-20T12:26:42;30.30;25.50
21085;DHT22;34247;50.064;19.970;2022-09-20T12:28:53;30.40;25.70
21085;DHT22;34247;50.064;19.970;2022-09-20T12:30:05;30.40;25.80